Time;durP1;ratioP1;P1;durP2;ratioP2;P2;SDS_P1;SDS_P2;PMS_P1;PMS_P2;Temp;Humidity;BMP_temperature;BMP_pressure;BME280_temperature;BME280_humidity;BME280_pressure;Samples;Min_cycle;Max_cycle;Signal;HPM_P1;HPM_P2
2022/11/14 10:49:54;;;;;;;2.17;2.07;;;19.00;64.20;;;;;;5111725;27;1269977;-73
2022/11/14 10:52:27;;;;;;;2.03;1.90;;;19.20;62.70;;;;;;5127876;28;20828;-74
2022/11/14 10:54:59;;;;;;;2.23;2.03;;;19.40;62.10;;;;;;5110852;28;20404;-74
2022/11/14 10:57:24;;;;;;;2.13;2.00;;;19.70;61.50;;;;;;5073401;28;20495;-74
2022/11/14 10:59:51;;;;;;;2.00;1.90;;;20.00;60.80;;;;;;5070754;28;20406;-76
2022/11/14 11:02:17;;;;;;;4.57;2.10;;;20.10;60.40;;;;;;5070102;28;20255;-75
2022/11/14 11:04:44;;;;;;;2.23;1.60;;;20.20;60.10;;;;;;5071149;28;20452;-75
2022/11/14 11:11:28;;;;;;;2.03;1.83;;;20.30;59.90;;;;;;5070611;28;20837;-75
2022/11/14 11:12:46;;;;;;;2.00;1.63;;;20.30;59.70;;;;;;5071158;28;20432;-75
2022/11/14 11:15:22;;;;;;;2.13;1.83;;;20.30;59.60;;;;;;5069782;28;20432;-75
2022/11/14 11:17:56;;;;;;;3.30;1.97;;;20.30;59.50;;;;;;5070003;28;20397;-75
2022/11/14 11:20:25;;;;;;;1.97;1.73;;;20.30;59.60;;;;;;5070851;28;20428;-74
2022/11/14 11:23:03;;;;;;;2.00;1.73;;;20.30;59.60;;;;;;5069784;28;20468;-76
2022/11/14 11:25:30;;;;;;;2.20;2.00;;;20.30;59.50;;;;;;5069963;28;20404;-75
2022/11/14 11:28:22;;;;;;;2.60;1.90;;;20.30;59.50;;;;;;5069525;28;20528;-75
2022/11/14 11:30:59;;;;;;;2.23;1.70;;;20.30;59.50;;;;;;5068733;28;20492;-75
2022/11/14 11:33:30;;;;;;;2.27;2.07;;;20.30;59.40;;;;;;5070484;28;20393;-75
2022/11/14 11:36:04;;;;;;;2.73;1.70;;;20.30;59.40;;;;;;5070359;28;20449;-74
2022/11/14 11:38:31;;;;;;;1.77;1.67;;;20.30;59.50;;;;;;5069454;28;20496;-75
2022/11/14 11:41:20;;;;;;;1.80;1.70;;;20.30;59.50;;;;;;5070568;28;20425;-74
2022/11/14 11:43:54;;;;;;;1.93;1.83;;;20.20;59.60;;;;;;5070431;28;20459;-75
2022/11/14 11:46:31;;;;;;;2.17;1.97;;;20.20;59.60;;;;;;5070320;28;20421;-75
2022/11/14 11:49:10;;;;;;;1.53;1.43;;;20.20;59.60;;;;;;5069923;28;20464;-75
2022/11/14 11:51:42;;;;;;;2.23;1.80;;;20.20;59.60;;;;;;5069914;28;20442;-74
2022/11/14 11:54:27;;;;;;;1.90;1.80;;;20.20;59.60;;;;;;5069903;28;20477;-74
2022/11/14 11:56:58;;;;;;;4.07;1.63;;;20.20;60.10;;;;;;5049406;28;20442;-71
2022/11/14 11:59:40;;;;;;;2.00;1.80;;;20.30;59.50;;;;;;5046638;28;20487;-71
2022/11/14 12:02:27;;;;;;;1.60;1.50;;;20.50;59.30;;;;;;5036655;28;20388;-74
2022/11/14 12:04:55;;;;;;;1.80;1.60;;;20.60;59.10;;;;;;5035697;28;20403;-73
2022/11/14 12:07:51;;;;;;;1.73;1.57;;;20.60;59.10;;;;;;5035631;28;20427;-73
2022/11/14 12:10:26;;;;;;;5.23;1.93;;;20.50;59.20;;;;;;5036541;28;20410;-74
2022/11/14 12:13:02;;;;;;;1.70;1.60;;;20.40;59.30;;;;;;5036757;28;20388;-77
2022/11/14 12:15:39;;;;;;;2.50;1.53;;;20.40;59.40;;;;;;5035538;28;20411;-73
2022/11/14 12:18:29;;;;;;;2.33;1.63;;;20.40;59.40;;;;;;5036441;28;20398;-74
2022/11/14 12:21:11;;;;;;;1.60;1.50;;;20.30;59.70;;;;;;5035671;28;20708;-73
2022/11/14 12:24:07;;;;;;;2.37;1.73;;;20.40;59.80;;;;;;4992831;28;20540;-71
2022/11/14 12:27:00;;;;;;;3.83;1.90;;;20.50;59.30;;;;;;5045598;28;20453;-74
2022/11/14 12:29:50;;;;;;;2.60;1.93;;;20.70;59.20;;;;;;5054928;28;20446;-72
2022/11/14 12:32:21;;;;;;;3.50;2.00;;;20.70;59.40;;;;;;5036045;28;20410;-73
2022/11/14 12:34:48;;;;;;;2.33;1.67;;;20.80;59.30;;;;;;5044634;28;20433;-73
2022/11/14 12:37:44;;;;;;;2.07;1.70;;;20.90;59.20;;;;;;5056075;28;20410;-71
2022/11/14 12:40:20;;;;;;;4.73;1.80;;;20.90;59.10;;;;;;5039909;28;20433;-72
2022/11/14 12:42:47;;;;;;;2.60;2.00;;;20.90;59.20;;;;;;5055604;28;20418;-74
2022/11/14 12:45:39;;;;;;;3.63;2.07;;;20.90;59.20;;;;;;5055747;28;20414;-74
2022/11/14 12:48:27;;;;;;;3.10;1.70;;;21.00;59.10;;;;;;5040030;28;20474;-75
2022/11/14 12:50:54;;;;;;;3.43;1.73;;;21.00;59.20;;;;;;5051396;28;20415;-74
2022/11/14 12:53:39;;;;;;;1.93;1.63;;;21.00;59.20;;;;;;5049091;28;20510;-72
2022/11/14 12:56:31;;;;;;;1.63;1.53;;;21.00;59.10;;;;;;5041712;28;20463;-75
2022/11/14 12:59:19;;;;;;;3.27;1.40;;;21.00;59.20;;;;;;5051224;28;20451;-74
2022/11/14 13:01:50;;;;;;;1.33;1.13;;;21.00;59.30;;;;;;5035559;28;20438;-73
2022/11/14 13:04:42;;;;;;;2.00;1.50;;;20.90;59.50;;;;;;5055236;28;20399;-74
2022/11/14 13:07:26;;;;;;;4.17;1.70;;;20.80;59.80;;;;;;5055407;28;20406;-74
2022/11/14 13:10:14;;;;;;;2.57;1.30;;;20.70;60.00;;;;;;5055063;28;20450;-74
2022/11/14 13:21:44;;;;;;;1.83;1.73;;;20.50;60.40;;;;;;5052728;28;20409;-76
